sensor_id;sensor_type;location;lat;lon;timestamp;P1;durP1;ratioP1;P2;durP2;ratioP2
7154;SDS011;3619;53.784;10.440;2022-12-15T00:02:39;10.37;;;9.97;;
7154;SDS011;3619;53.784;10.440;2022-12-15T00:05:25;9.87;;;9.47;;
7154;SDS011;3619;53.784;10.440;2022-12-15T00:08:12;8.80;;;8.50;;
7154;SDS011;3619;53.784;10.440;2022-12-15T00:10:57;9.60;;;9.23;;
7154;SDS011;3619;53.784;10.440;2022-12-15T00:13:44;9.30;;;9.00;;
7154;SDS011;3619;53.784;10.440;2022-12-15T00:16:39;9.23;;;8.93;;
7154;SDS011;3619;53.784;10.440;2022-12-15T00:19:23;10.93;;;10.53;;
7154;SDS011;3619;53.784;10.440;2022-12-15T00:22:08;7.80;;;7.50;;
7154;SDS011;3619;53.784;10.440;2022-12-15T00:24:52;9.33;;;9.03;;
7154;SDS011;3619;53.784;10.440;2022-12-15T00:27:36;10.17;;;9.77;;
7154;SDS011;3619;53.784;10.440;2022-12-15T00:30:20;9.10;;;8.80;;
7154;SDS011;3619;53.784;10.440;2022-12-15T00:33:12;9.80;;;9.43;;
7154;SDS011;3619;53.784;10.440;2022-12-15T00:35:58;9.23;;;8.93;;
7154;SDS011;3619;53.784;10.440;2022-12-15T00:38:43;9.20;;;8.90;;
7154;SDS011;3619;53.784;10.440;2022-12-15T00:41:10;10.37;;;9.97;;
7154;SDS011;3619;53.784;10.440;2022-12-15T00:43:37;10.73;;;10.33;;
7154;SDS011;3619;53.784;10.440;2022-12-15T00:46:17;9.07;;;8.77;;
7154;SDS011;3619;53.784;10.440;2022-12-15T00:49:03;9.97;;;9.57;;
7154;SDS011;3619;53.784;10.440;2022-12-15T00:51:52;9.90;;;9.50;;
7154;SDS011;3619;53.784;10.440;2022-12-15T00:54:36;9.50;;;9.13;;
7154;SDS011;3619;53.784;10.440;2022-12-15T00:57:21;9.90;;;9.50;;
7154;SDS011;3619;53.784;10.440;2022-12-15T01:00:08;9.20;;;8.90;;
7154;SDS011;3619;53.784;10.440;2022-12-15T01:02:53;10.73;;;10.33;;
7154;SDS011;3619;53.784;10.440;2022-12-15T01:05:39;13.00;;;12.50;;
7154;SDS011;3619;53.784;10.440;2022-12-15T01:08:23;10.93;;;10.53;;
7154;SDS011;3619;53.784;10.440;2022-12-15T01:11:09;10.10;;;9.70;;
7154;SDS011;3619;53.784;10.440;2022-12-15T01:13:54;13.20;;;12.70;;
7154;SDS011;3619;53.784;10.440;2022-12-15T01:16:39;11.27;;;10.87;;
7154;SDS011;3619;53.784;10.440;2022-12-15T01:19:24;12.17;;;11.70;;
7154;SDS011;3619;53.784;10.440;2022-12-15T01:22:17;9.17;;;8.87;;
7154;SDS011;3619;53.784;10.440;2022-12-15T01:24:44;10.53;;;10.13;;
7154;SDS011;3619;53.784;10.440;2022-12-15T01:27:15;10.67;;;10.27;;
7154;SDS011;3619;53.784;10.440;2022-12-15T01:30:02;10.13;;;9.73;;
7154;SDS011;3619;53.784;10.440;2022-12-15T01:33:11;9.67;;;9.30;;
7154;SDS011;3619;53.784;10.440;2022-12-15T01:36:18;10.53;;;10.13;;
7154;SDS011;3619;53.784;10.440;2022-12-15T01:39:26;8.83;;;8.53;;
7154;SDS011;3619;53.784;10.440;2022-12-15T01:42:15;10.97;;;10.57;;
7154;SDS011;3619;53.784;10.440;2022-12-15T01:44:42;8.30;;;8.00;;
7154;SDS011;3619;53.784;10.440;2022-12-15T01:49:53;10.33;;;9.93;;
7154;SDS011;3619;53.784;10.440;2022-12-15T01:57:01;9.97;;;9.57;;
7154;SDS011;3619;53.784;10.440;2022-12-15T02:07:39;10.07;;;9.67;;
7154;SDS011;3619;53.784;10.440;2022-12-15T02:10:15;10.50;;;10.10;;
7154;SDS011;3619;53.784;10.440;2022-12-15T02:23:17;10.43;;;10.03;;
7154;SDS011;3619;53.784;10.440;2022-12-15T02:26:34;10.83;;;10.43;;
7154;SDS011;3619;53.784;10.440;2022-12-15T02:29:50;9.10;;;8.80;;
7154;SDS011;3619;53.784;10.440;2022-12-15T02:32:57;7.40;;;7.10;;
7154;SDS011;3619;53.784;10.440;2022-12-15T02:35:34;9.00;;;8.70;;
7154;SDS011;3619;53.784;10.440;2022-12-15T02:38:08;10.40;;;10.00;;
7154;SDS011;3619;53.784;10.440;2022-12-15T02:41:29;10.80;;;10.40;;
7154;SDS011;3619;53.784;10.440;2022-12-15T02:44:25;8.83;;;8.53;;
7154;SDS011;3619;53.784;10.440;2022-12-15T02:47:32;9.00;;;8.70;;
7154;SDS011;3619;53.784;10.440;2022-12-15T02:53:06;10.17;;;9.77;;
7154;SDS011;3619;53.784;10.440;2022-12-15T02:55:45;11.10;;;10.70;;
7154;SDS011;3619;53.784;10.440;2022-12-15T02:58:24;8.47;;;8.17;;
7154;SDS011;3619;53.784;10.440;2022-12-15T03:00:57;10.77;;;10.37;;
7154;SDS011;3619;53.784;10.440;2022-12-15T03:03:28;10.10;;;9.70;;
7154;SDS011;3619;53.784;10.440;2022-12-15T03:05:57;9.93;;;9.53;;
7154;SDS011;3619;53.784;10.440;2022-12-15T03:08:26;8.83;;;8.53;;
7154;SDS011;3619;53.784;10.440;2022-12-15T03:10:56;6.93;;;6.73;;
7154;SDS011;3619;53.784;10.440;2022-12-15T03:13:24;9.13;;;8.83;;
7154;SDS011;3619;53.784;10.440;2022-12-15T03:15:52;7.63;;;7.33;;
7154;SDS011;3619;53.784;10.440;2022-12-15T03:18:19;9.37;;;9.07;;
7154;SDS011;3619;53.784;10.440;2022-12-15T03:20:48;8.30;;;8.00;;
7154;SDS011;3619;53.784;10.440;2022-12-15T03:23:35;9.33;;;9.03;;
7154;SDS011;3619;53.784;10.440;2022-12-15T03:29:57;9.90;;;9.50;;
7154;SDS011;3619;53.784;10.440;2022-12-15T03:32:25;8.07;;;7.77;;
7154;SDS011;3619;53.784;10.440;2022-12-15T03:34:51;8.70;;;8.40;;
7154;SDS011;3619;53.784;10.440;2022-12-15T03:37:22;7.70;;;7.40;;
7154;SDS011;3619;53.784;10.440;2022-12-15T03:39:49;8.83;;;8.53;;
7154;SDS011;3619;53.784;10.440;2022-12-15T03:42:18;9.60;;;9.23;;
7154;SDS011;3619;53.784;10.440;2022-12-15T03:45:05;10.03;;;9.63;;
7154;SDS011;3619;53.784;10.440;2022-12-15T03:47:39;10.70;;;10.30;;
7154;SDS011;3619;53.784;10.440;2022-12-15T03:50:06;10.23;;;9.83;;
7154;SDS011;3619;53.784;10.440;2022-12-15T03:52:48;8.43;;;8.13;;
7154;SDS011;3619;53.784;10.440;2022-12-15T03:55:19;9.80;;;9.40;;
7154;SDS011;3619;53.784;10.440;2022-12-15T03:57:48;8.27;;;7.97;;
7154;SDS011;3619;53.784;10.440;2022-12-15T04:00:29;7.60;;;7.30;;
7154;SDS011;3619;53.784;10.440;2022-12-15T04:03:20;8.10;;;7.80;;
7154;SDS011;3619;53.784;10.440;2022-12-15T04:06:31;9.73;;;9.33;;
7154;SDS011;3619;53.784;10.440;2022-12-15T04:09:01;8.97;;;8.67;;
7154;SDS011;3619;53.784;10.440;2022-12-15T04:11:29;9.43;;;9.10;;
7154;SDS011;3619;53.784;10.440;2022-12-15T04:13:58;12.30;;;11.80;;
7154;SDS011;3619;53.784;10.440;2022-12-15T04:16:28;9.43;;;9.10;;
7154;SDS011;3619;53.784;10.440;2022-12-15T04:18:56;8.67;;;8.37;;
7154;SDS011;3619;53.784;10.440;2022-12-15T04:21:41;8.20;;;7.90;;
7154;SDS011;3619;53.784;10.440;2022-12-15T04:24:13;7.63;;;7.33;;
7154;SDS011;3619;53.784;10.440;2022-12-15T04:26:59;9.57;;;9.20;;
7154;SDS011;3619;53.784;10.440;2022-12-15T04:32:32;8.00;;;7.70;;
7154;SDS011;3619;53.784;10.440;2022-12-15T04:35:16;9.23;;;8.93;;
7154;SDS011;3619;53.784;10.440;2022-12-15T04:38:01;8.40;;;8.10;;
7154;SDS011;3619;53.784;10.440;2022-12-15T04:40:47;7.77;;;7.47;;
7154;SDS011;3619;53.784;10.440;2022-12-15T04:43:32;8.17;;;7.87;;
7154;SDS011;3619;53.784;10.440;2022-12-15T04:46:17;8.13;;;7.83;;
7154;SDS011;3619;53.784;10.440;2022-12-15T04:49:01;9.10;;;8.80;;
7154;SDS011;3619;53.784;10.440;2022-12-15T04:51:48;8.63;;;8.33;;
7154;SDS011;3619;53.784;10.440;2022-12-15T04:54:34;9.80;;;9.40;;
7154;SDS011;3619;53.784;10.440;2022-12-15T04:57:20;8.47;;;8.17;;
7154;SDS011;3619;53.784;10.440;2022-12-15T05:01:39;10.37;;;9.97;;
7154;SDS011;3619;53.784;10.440;2022-12-15T05:03:24;9.40;;;9.00;;
7154;SDS011;3619;53.784;10.440;2022-12-15T05:06:09;11.17;;;10.77;;
7154;SDS011;3619;53.784;10.440;2022-12-15T05:09:00;7.47;;;7.17;;
7154;SDS011;3619;53.784;10.440;2022-12-15T05:11:45;11.63;;;11.23;;
7154;SDS011;3619;53.784;10.440;2022-12-15T05:14:31;7.90;;;7.60;;
7154;SDS011;3619;53.784;10.440;2022-12-15T05:17:17;7.93;;;7.63;;
7154;SDS011;3619;53.784;10.440;2022-12-15T05:20:02;8.90;;;8.60;;
7154;SDS011;3619;53.784;10.440;2022-12-15T05:22:53;8.67;;;8.37;;
7154;SDS011;3619;53.784;10.440;2022-12-15T05:25:40;9.30;;;9.00;;
7154;SDS011;3619;53.784;10.440;2022-12-15T05:28:24;8.37;;;8.07;;
7154;SDS011;3619;53.784;10.440;2022-12-15T05:31:18;7.73;;;7.43;;
7154;SDS011;3619;53.784;10.440;2022-12-15T05:34:02;9.00;;;8.70;;
7154;SDS011;3619;53.784;10.440;2022-12-15T05:36:37;10.67;;;10.27;;
7154;SDS011;3619;53.784;10.440;2022-12-15T05:39:10;7.13;;;6.83;;
7154;SDS011;3619;53.784;10.440;2022-12-15T05:41:38;7.50;;;7.20;;
7154;SDS011;3619;53.784;10.440;2022-12-15T05:44:17;8.30;;;8.00;;
7154;SDS011;3619;53.784;10.440;2022-12-15T05:46:51;7.93;;;7.63;;
7154;SDS011;3619;53.784;10.440;2022-12-15T05:49:27;7.37;;;7.07;;
7154;SDS011;3619;53.784;10.440;2022-12-15T05:51:57;7.77;;;7.47;;
7154;SDS011;3619;53.784;10.440;2022-12-15T05:54:24;7.97;;;7.67;;
7154;SDS011;3619;53.784;10.440;2022-12-15T05:56:56;8.50;;;8.20;;
7154;SDS011;3619;53.784;10.440;2022-12-15T05:59:25;8.60;;;8.30;;
7154;SDS011;3619;53.784;10.440;2022-12-15T06:01:56;8.47;;;8.17;;
7154;SDS011;3619;53.784;10.440;2022-12-15T06:07:44;10.60;;;10.20;;
7154;SDS011;3619;53.784;10.440;2022-12-15T06:10:13;11.13;;;10.73;;
7154;SDS011;3619;53.784;10.440;2022-12-15T06:12:40;7.87;;;7.57;;
7154;SDS011;3619;53.784;10.440;2022-12-15T06:15:07;9.50;;;9.17;;
7154;SDS011;3619;53.784;10.440;2022-12-15T06:20:41;7.37;;;7.07;;
7154;SDS011;3619;53.784;10.440;2022-12-15T06:23:17;9.27;;;8.97;;
7154;SDS011;3619;53.784;10.440;2022-12-15T06:26:23;8.07;;;7.77;;
7154;SDS011;3619;53.784;10.440;2022-12-15T06:29:05;8.33;;;8.03;;
7154;SDS011;3619;53.784;10.440;2022-12-15T06:31:34;9.30;;;9.00;;
7154;SDS011;3619;53.784;10.440;2022-12-15T06:37:37;8.53;;;8.23;;
7154;SDS011;3619;53.784;10.440;2022-12-15T06:40:13;8.77;;;8.47;;
7154;SDS011;3619;53.784;10.440;2022-12-15T06:46:05;9.70;;;9.33;;
7154;SDS011;3619;53.784;10.440;2022-12-15T06:49:06;9.33;;;9.03;;
7154;SDS011;3619;53.784;10.440;2022-12-15T06:51:59;8.17;;;7.87;;
7154;SDS011;3619;53.784;10.440;2022-12-15T06:56:18;9.23;;;8.93;;
7154;SDS011;3619;53.784;10.440;2022-12-15T06:57:50;7.80;;;7.50;;
7154;SDS011;3619;53.784;10.440;2022-12-15T07:00:18;10.20;;;9.80;;
7154;SDS011;3619;53.784;10.440;2022-12-15T07:02:54;7.73;;;7.43;;
7154;SDS011;3619;53.784;10.440;2022-12-15T07:05:21;8.50;;;8.20;;
7154;SDS011;3619;53.784;10.440;2022-12-15T07:08:15;10.10;;;9.70;;
7154;SDS011;3619;53.784;10.440;2022-12-15T07:11:41;8.43;;;8.13;;
7154;SDS011;3619;53.784;10.440;2022-12-15T07:14:18;9.03;;;8.73;;
7154;SDS011;3619;53.784;10.440;2022-12-15T07:16:50;9.13;;;8.83;;
7154;SDS011;3619;53.784;10.440;2022-12-15T07:19:49;8.93;;;8.63;;
7154;SDS011;3619;53.784;10.440;2022-12-15T07:32:35;10.13;;;9.73;;
7154;SDS011;3619;53.784;10.440;2022-12-15T07:35:31;7.97;;;7.67;;
7154;SDS011;3619;53.784;10.440;2022-12-15T07:38:02;8.03;;;7.73;;
7154;SDS011;3619;53.784;10.440;2022-12-15T07:40:31;9.13;;;8.83;;
7154;SDS011;3619;53.784;10.440;2022-12-15T07:43:00;7.43;;;7.13;;
7154;SDS011;3619;53.784;10.440;2022-12-15T07:45:28;9.30;;;9.00;;
7154;SDS011;3619;53.784;10.440;2022-12-15T07:47:56;8.33;;;8.03;;
7154;SDS011;3619;53.784;10.440;2022-12-15T07:50:23;6.27;;;6.07;;
7154;SDS011;3619;53.784;10.440;2022-12-15T07:52:50;6.60;;;6.40;;
7154;SDS011;3619;53.784;10.440;2022-12-15T07:55:18;6.40;;;6.20;;
7154;SDS011;3619;53.784;10.440;2022-12-15T07:57:45;7.80;;;7.50;;
7154;SDS011;3619;53.784;10.440;2022-12-15T08:00:14;7.00;;;6.73;;
7154;SDS011;3619;53.784;10.440;2022-12-15T08:02:43;7.50;;;7.20;;
7154;SDS011;3619;53.784;10.440;2022-12-15T08:05:14;8.40;;;8.10;;
7154;SDS011;3619;53.784;10.440;2022-12-15T08:07:42;7.27;;;6.97;;
7154;SDS011;3619;53.784;10.440;2022-12-15T08:10:09;6.40;;;6.20;;
7154;SDS011;3619;53.784;10.440;2022-12-15T08:12:36;7.40;;;7.10;;
7154;SDS011;3619;53.784;10.440;2022-12-15T08:15:03;7.57;;;7.27;;
7154;SDS011;3619;53.784;10.440;2022-12-15T08:17:35;8.47;;;8.17;;
7154;SDS011;3619;53.784;10.440;2022-12-15T08:20:05;8.17;;;7.87;;
7154;SDS011;3619;53.784;10.440;2022-12-15T08:23:02;8.40;;;8.10;;
7154;SDS011;3619;53.784;10.440;2022-12-15T08:26:04;7.30;;;7.00;;
7154;SDS011;3619;53.784;10.440;2022-12-15T08:28:36;7.13;;;6.83;;
7154;SDS011;3619;53.784;10.440;2022-12-15T08:31:07;7.47;;;7.17;;
7154;SDS011;3619;53.784;10.440;2022-12-15T08:33:35;9.10;;;8.80;;
7154;SDS011;3619;53.784;10.440;2022-12-15T08:36:15;6.27;;;6.07;;
7154;SDS011;3619;53.784;10.440;2022-12-15T08:38:46;9.27;;;8.97;;
7154;SDS011;3619;53.784;10.440;2022-12-15T08:41:17;6.00;;;5.80;;
7154;SDS011;3619;53.784;10.440;2022-12-15T08:43:49;7.17;;;6.87;;
7154;SDS011;3619;53.784;10.440;2022-12-15T08:46:16;6.73;;;6.53;;
7154;SDS011;3619;53.784;10.440;2022-12-15T08:48:47;5.43;;;5.23;;
7154;SDS011;3619;53.784;10.440;2022-12-15T08:53:21;7.27;;;6.97;;
7154;SDS011;3619;53.784;10.440;2022-12-15T08:55:11;6.10;;;5.90;;
7154;SDS011;3619;53.784;10.440;2022-12-15T08:57:40;6.03;;;5.83;;
7154;SDS011;3619;53.784;10.440;2022-12-15T09:00:09;8.47;;;8.17;;
7154;SDS011;3619;53.784;10.440;2022-12-15T09:02:51;5.87;;;5.67;;
7154;SDS011;3619;53.784;10.440;2022-12-15T09:05:18;5.53;;;5.33;;
7154;SDS011;3619;53.784;10.440;2022-12-15T09:07:54;7.00;;;6.73;;
7154;SDS011;3619;53.784;10.440;2022-12-15T09:10:28;6.90;;;6.67;;
7154;SDS011;3619;53.784;10.440;2022-12-15T09:12:55;6.33;;;6.13;;
7154;SDS011;3619;53.784;10.440;2022-12-15T09:15:22;7.53;;;7.23;;
7154;SDS011;3619;53.784;10.440;2022-12-15T09:17:49;5.17;;;4.97;;
7154;SDS011;3619;53.784;10.440;2022-12-15T09:20:16;6.43;;;6.23;;
7154;SDS011;3619;53.784;10.440;2022-12-15T09:22:43;14.10;;;13.27;;
7154;SDS011;3619;53.784;10.440;2022-12-15T09:25:12;5.50;;;5.30;;
7154;SDS011;3619;53.784;10.440;2022-12-15T09:27:40;5.23;;;5.03;;
7154;SDS011;3619;53.784;10.440;2022-12-15T09:30:10;5.37;;;5.17;;
7154;SDS011;3619;53.784;10.440;2022-12-15T09:32:42;5.97;;;5.77;;
7154;SDS011;3619;53.784;10.440;2022-12-15T09:35:09;5.70;;;5.50;;
7154;SDS011;3619;53.784;10.440;2022-12-15T09:37:35;6.73;;;6.53;;
7154;SDS011;3619;53.784;10.440;2022-12-15T09:40:03;6.70;;;6.50;;
7154;SDS011;3619;53.784;10.440;2022-12-15T09:42:33;5.93;;;5.73;;
7154;SDS011;3619;53.784;10.440;2022-12-15T09:45:05;5.93;;;5.73;;
7154;SDS011;3619;53.784;10.440;2022-12-15T09:47:41;6.13;;;5.93;;
7154;SDS011;3619;53.784;10.440;2022-12-15T09:50:14;5.60;;;5.40;;
7154;SDS011;3619;53.784;10.440;2022-12-15T09:52:50;6.30;;;6.10;;
7154;SDS011;3619;53.784;10.440;2022-12-15T09:55:23;5.90;;;5.70;;
7154;SDS011;3619;53.784;10.440;2022-12-15T09:57:53;7.50;;;7.20;;
7154;SDS011;3619;53.784;10.440;2022-12-15T10:00:23;6.20;;;6.00;;
7154;SDS011;3619;53.784;10.440;2022-12-15T10:06:01;6.73;;;6.53;;
7154;SDS011;3619;53.784;10.440;2022-12-15T10:08:32;7.53;;;7.23;;
7154;SDS011;3619;53.784;10.440;2022-12-15T10:11:04;7.70;;;7.40;;
7154;SDS011;3619;53.784;10.440;2022-12-15T10:13:40;7.33;;;7.03;;
7154;SDS011;3619;53.784;10.440;2022-12-15T10:16:24;7.53;;;7.23;;
7154;SDS011;3619;53.784;10.440;2022-12-15T10:19:21;7.90;;;7.60;;
7154;SDS011;3619;53.784;10.440;2022-12-15T10:22:10;8.30;;;8.00;;
7154;SDS011;3619;53.784;10.440;2022-12-15T10:24:44;7.70;;;7.40;;
7154;SDS011;3619;53.784;10.440;2022-12-15T10:27:17;7.00;;;6.77;;
7154;SDS011;3619;53.784;10.440;2022-12-15T10:29:56;9.13;;;8.83;;
7154;SDS011;3619;53.784;10.440;2022-12-15T10:32:36;9.10;;;8.80;;
7154;SDS011;3619;53.784;10.440;2022-12-15T10:35:13;8.17;;;7.87;;
7154;SDS011;3619;53.784;10.440;2022-12-15T10:37:46;8.03;;;7.73;;
7154;SDS011;3619;53.784;10.440;2022-12-15T10:40:16;8.30;;;8.00;;
7154;SDS011;3619;53.784;10.440;2022-12-15T10:42:48;7.17;;;6.87;;
7154;SDS011;3619;53.784;10.440;2022-12-15T10:45:32;6.67;;;6.47;;
7154;SDS011;3619;53.784;10.440;2022-12-15T10:48:05;7.33;;;7.03;;
7154;SDS011;3619;53.784;10.440;2022-12-15T10:50:43;7.07;;;6.80;;
7154;SDS011;3619;53.784;10.440;2022-12-15T10:53:27;5.60;;;5.40;;
7154;SDS011;3619;53.784;10.440;2022-12-15T10:56:00;5.60;;;5.40;;
7154;SDS011;3619;53.784;10.440;2022-12-15T10:58:31;5.43;;;5.23;;
7154;SDS011;3619;53.784;10.440;2022-12-15T11:01:13;5.03;;;4.83;;
7154;SDS011;3619;53.784;10.440;2022-12-15T11:03:43;4.83;;;4.63;;
7154;SDS011;3619;53.784;10.440;2022-12-15T11:06:22;4.97;;;4.77;;
7154;SDS011;3619;53.784;10.440;2022-12-15T11:08:52;4.40;;;4.27;;
7154;SDS011;3619;53.784;10.440;2022-12-15T11:11:32;3.87;;;3.77;;
7154;SDS011;3619;53.784;10.440;2022-12-15T11:14:29;5.43;;;5.23;;
7154;SDS011;3619;53.784;10.440;2022-12-15T11:17:12;3.77;;;3.67;;
7154;SDS011;3619;53.784;10.440;2022-12-15T11:19:45;3.80;;;3.70;;
7154;SDS011;3619;53.784;10.440;2022-12-15T11:22:20;3.50;;;3.40;;
7154;SDS011;3619;53.784;10.440;2022-12-15T11:24:58;4.23;;;4.13;;
7154;SDS011;3619;53.784;10.440;2022-12-15T11:27:30;3.53;;;3.43;;
7154;SDS011;3619;53.784;10.440;2022-12-15T11:30:01;3.60;;;3.50;;
7154;SDS011;3619;53.784;10.440;2022-12-15T11:32:37;3.77;;;3.67;;
7154;SDS011;3619;53.784;10.440;2022-12-15T11:35:12;4.53;;;4.33;;
7154;SDS011;3619;53.784;10.440;2022-12-15T11:37:41;3.53;;;3.43;;
7154;SDS011;3619;53.784;10.440;2022-12-15T11:40:17;3.50;;;3.40;;
7154;SDS011;3619;53.784;10.440;2022-12-15T11:46:17;3.60;;;3.50;;
7154;SDS011;3619;53.784;10.440;2022-12-15T11:48:51;3.03;;;2.93;;
7154;SDS011;3619;53.784;10.440;2022-12-15T11:51:40;4.03;;;3.93;;
7154;SDS011;3619;53.784;10.440;2022-12-15T11:54:14;3.93;;;3.83;;
7154;SDS011;3619;53.784;10.440;2022-12-15T11:56:46;3.60;;;3.50;;
7154;SDS011;3619;53.784;10.440;2022-12-15T12:02:30;3.93;;;3.83;;
7154;SDS011;3619;53.784;10.440;2022-12-15T12:05:21;3.47;;;3.37;;
7154;SDS011;3619;53.784;10.440;2022-12-15T12:08:03;15.90;;;15.20;;
7154;SDS011;3619;53.784;10.440;2022-12-15T12:10:43;6.20;;;5.80;;
7154;SDS011;3619;53.784;10.440;2022-12-15T12:13:22;3.03;;;2.93;;
7154;SDS011;3619;53.784;10.440;2022-12-15T12:16:02;3.37;;;3.27;;
7154;SDS011;3619;53.784;10.440;2022-12-15T12:18:36;3.70;;;3.60;;
7154;SDS011;3619;53.784;10.440;2022-12-15T12:21:08;3.13;;;3.03;;
7154;SDS011;3619;53.784;10.440;2022-12-15T12:23:41;3.67;;;3.57;;
7154;SDS011;3619;53.784;10.440;2022-12-15T12:26:15;4.60;;;4.40;;
7154;SDS011;3619;53.784;10.440;2022-12-15T12:28:52;3.00;;;2.90;;
7154;SDS011;3619;53.784;10.440;2022-12-15T12:31:30;4.27;;;4.17;;
7154;SDS011;3619;53.784;10.440;2022-12-15T12:34:09;4.03;;;3.93;;
7154;SDS011;3619;53.784;10.440;2022-12-15T12:36:43;4.13;;;4.03;;
7154;SDS011;3619;53.784;10.440;2022-12-15T12:39:15;4.53;;;4.33;;
7154;SDS011;3619;53.784;10.440;2022-12-15T12:41:45;4.07;;;3.97;;
7154;SDS011;3619;53.784;10.440;2022-12-15T12:44:22;4.80;;;4.60;;
7154;SDS011;3619;53.784;10.440;2022-12-15T12:46:59;4.83;;;4.63;;
7154;SDS011;3619;53.784;10.440;2022-12-15T12:49:35;4.30;;;4.20;;
7154;SDS011;3619;53.784;10.440;2022-12-15T12:52:21;3.73;;;3.63;;
7154;SDS011;3619;53.784;10.440;2022-12-15T12:55:00;4.10;;;4.00;;
7154;SDS011;3619;53.784;10.440;2022-12-15T12:57:50;5.20;;;5.00;;
7154;SDS011;3619;53.784;10.440;2022-12-15T13:00:20;12.30;;;11.73;;
7154;SDS011;3619;53.784;10.440;2022-12-15T13:05:41;5.37;;;5.17;;
7154;SDS011;3619;53.784;10.440;2022-12-15T13:08:25;5.27;;;5.07;;
7154;SDS011;3619;53.784;10.440;2022-12-15T13:11:52;6.47;;;6.27;;
7154;SDS011;3619;53.784;10.440;2022-12-15T13:14:24;7.03;;;6.77;;
7154;SDS011;3619;53.784;10.440;2022-12-15T13:17:10;6.53;;;6.33;;
7154;SDS011;3619;53.784;10.440;2022-12-15T13:22:51;7.57;;;7.27;;
7154;SDS011;3619;53.784;10.440;2022-12-15T13:25:31;7.27;;;6.97;;
7154;SDS011;3619;53.784;10.440;2022-12-15T13:31:12;6.10;;;5.90;;
7154;SDS011;3619;53.784;10.440;2022-12-15T13:33:56;7.57;;;7.27;;
7154;SDS011;3619;53.784;10.440;2022-12-15T13:36:45;8.20;;;7.90;;
7154;SDS011;3619;53.784;10.440;2022-12-15T13:42:31;6.63;;;6.43;;
7154;SDS011;3619;53.784;10.440;2022-12-15T13:45:12;8.90;;;8.60;;
7154;SDS011;3619;53.784;10.440;2022-12-15T13:47:52;7.90;;;7.60;;
7154;SDS011;3619;53.784;10.440;2022-12-15T13:50:28;7.03;;;6.77;;
7154;SDS011;3619;53.784;10.440;2022-12-15T13:52:57;6.33;;;6.13;;
7154;SDS011;3619;53.784;10.440;2022-12-15T13:55:31;7.90;;;7.60;;
7154;SDS011;3619;53.784;10.440;2022-12-15T13:58:02;8.53;;;8.23;;
7154;SDS011;3619;53.784;10.440;2022-12-15T14:00:36;8.67;;;8.37;;
7154;SDS011;3619;53.784;10.440;2022-12-15T14:03:12;8.80;;;8.50;;
7154;SDS011;3619;53.784;10.440;2022-12-15T14:05:45;8.73;;;8.43;;
7154;SDS011;3619;53.784;10.440;2022-12-15T14:08:14;8.67;;;8.37;;
7154;SDS011;3619;53.784;10.440;2022-12-15T14:10:49;8.50;;;8.20;;
7154;SDS011;3619;53.784;10.440;2022-12-15T14:13:34;8.63;;;8.33;;
7154;SDS011;3619;53.784;10.440;2022-12-15T14:16:04;8.37;;;8.07;;
7154;SDS011;3619;53.784;10.440;2022-12-15T14:18:42;8.43;;;8.13;;
7154;SDS011;3619;53.784;10.440;2022-12-15T14:21:17;9.23;;;8.93;;
7154;SDS011;3619;53.784;10.440;2022-12-15T14:23:47;7.47;;;7.17;;
7154;SDS011;3619;53.784;10.440;2022-12-15T14:26:14;9.53;;;9.17;;
7154;SDS011;3619;53.784;10.440;2022-12-15T14:28:43;9.63;;;9.27;;
7154;SDS011;3619;53.784;10.440;2022-12-15T14:31:14;9.63;;;9.30;;
7154;SDS011;3619;53.784;10.440;2022-12-15T14:33:44;10.77;;;10.37;;
7154;SDS011;3619;53.784;10.440;2022-12-15T14:36:13;9.67;;;9.27;;
7154;SDS011;3619;53.784;10.440;2022-12-15T14:38:42;11.53;;;11.13;;
7154;SDS011;3619;53.784;10.440;2022-12-15T14:41:16;11.23;;;10.83;;
7154;SDS011;3619;53.784;10.440;2022-12-15T14:43:45;12.93;;;12.43;;
7154;SDS011;3619;53.784;10.440;2022-12-15T14:46:16;12.50;;;12.00;;
7154;SDS011;3619;53.784;10.440;2022-12-15T14:48:48;14.10;;;13.60;;
7154;SDS011;3619;53.784;10.440;2022-12-15T14:51:18;13.00;;;12.50;;
7154;SDS011;3619;53.784;10.440;2022-12-15T14:53:50;13.10;;;12.60;;
7154;SDS011;3619;53.784;10.440;2022-12-15T14:56:22;14.07;;;13.57;;
7154;SDS011;3619;53.784;10.440;2022-12-15T14:58:55;14.20;;;13.70;;
7154;SDS011;3619;53.784;10.440;2022-12-15T15:01:33;15.80;;;15.20;;
7154;SDS011;3619;53.784;10.440;2022-12-15T15:04:04;14.17;;;13.67;;
7154;SDS011;3619;53.784;10.440;2022-12-15T15:06:52;18.43;;;17.73;;
7154;SDS011;3619;53.784;10.440;2022-12-15T15:09:52;16.87;;;16.27;;
7154;SDS011;3619;53.784;10.440;2022-12-15T15:12:45;16.27;;;15.67;;
7154;SDS011;3619;53.784;10.440;2022-12-15T15:15:16;16.60;;;16.00;;
7154;SDS011;3619;53.784;10.440;2022-12-15T15:17:56;16.90;;;16.30;;
7154;SDS011;3619;53.784;10.440;2022-12-15T15:20:25;13.53;;;13.03;;
7154;SDS011;3619;53.784;10.440;2022-12-15T15:23:07;14.17;;;13.67;;
7154;SDS011;3619;53.784;10.440;2022-12-15T15:25:47;16.00;;;15.40;;
7154;SDS011;3619;53.784;10.440;2022-12-15T15:28:22;18.03;;;17.33;;
7154;SDS011;3619;53.784;10.440;2022-12-15T15:30:53;17.27;;;16.63;;
7154;SDS011;3619;53.784;10.440;2022-12-15T15:33:25;17.47;;;16.80;;
7154;SDS011;3619;53.784;10.440;2022-12-15T15:35:56;17.97;;;17.27;;
7154;SDS011;3619;53.784;10.440;2022-12-15T15:38:24;18.90;;;18.20;;
7154;SDS011;3619;53.784;10.440;2022-12-15T15:41:10;18.93;;;18.23;;
7154;SDS011;3619;53.784;10.440;2022-12-15T15:43:44;17.40;;;16.73;;
7154;SDS011;3619;53.784;10.440;2022-12-15T15:46:11;20.87;;;20.07;;
7154;SDS011;3619;53.784;10.440;2022-12-15T15:48:50;19.90;;;19.17;;
7154;SDS011;3619;53.784;10.440;2022-12-15T15:51:35;20.63;;;19.83;;
7154;SDS011;3619;53.784;10.440;2022-12-15T15:54:05;18.53;;;17.83;;
7154;SDS011;3619;53.784;10.440;2022-12-15T15:56:35;19.40;;;18.70;;
7154;SDS011;3619;53.784;10.440;2022-12-15T15:59:08;18.93;;;18.23;;
7154;SDS011;3619;53.784;10.440;2022-12-15T16:01:37;19.20;;;18.50;;
7154;SDS011;3619;53.784;10.440;2022-12-15T16:04:06;16.80;;;16.20;;
7154;SDS011;3619;53.784;10.440;2022-12-15T16:06:39;17.40;;;16.73;;
7154;SDS011;3619;53.784;10.440;2022-12-15T16:09:06;19.53;;;18.83;;
7154;SDS011;3619;53.784;10.440;2022-12-15T16:11:37;21.63;;;20.83;;
7154;SDS011;3619;53.784;10.440;2022-12-15T16:14:14;18.20;;;17.50;;
7154;SDS011;3619;53.784;10.440;2022-12-15T16:16:43;20.47;;;19.67;;
7154;SDS011;3619;53.784;10.440;2022-12-15T16:19:21;19.13;;;18.43;;
7154;SDS011;3619;53.784;10.440;2022-12-15T16:21:59;19.60;;;18.90;;
7154;SDS011;3619;53.784;10.440;2022-12-15T16:24:36;18.47;;;17.77;;
7154;SDS011;3619;53.784;10.440;2022-12-15T16:27:03;18.13;;;17.43;;
7154;SDS011;3619;53.784;10.440;2022-12-15T16:29:30;19.30;;;18.60;;
7154;SDS011;3619;53.784;10.440;2022-12-15T16:31:57;19.00;;;18.30;;
7154;SDS011;3619;53.784;10.440;2022-12-15T16:34:31;17.07;;;16.47;;
7154;SDS011;3619;53.784;10.440;2022-12-15T16:38:49;18.20;;;17.50;;
7154;SDS011;3619;53.784;10.440;2022-12-15T16:40:27;15.90;;;15.30;;
7154;SDS011;3619;53.784;10.440;2022-12-15T16:43:23;15.97;;;15.37;;
7154;SDS011;3619;53.784;10.440;2022-12-15T16:45:54;17.03;;;16.43;;
7154;SDS011;3619;53.784;10.440;2022-12-15T16:48:27;19.03;;;18.33;;
7154;SDS011;3619;53.784;10.440;2022-12-15T16:50:56;16.40;;;15.80;;
7154;SDS011;3619;53.784;10.440;2022-12-15T16:53:56;16.53;;;15.93;;
7154;SDS011;3619;53.784;10.440;2022-12-15T16:56:47;18.13;;;17.43;;
7154;SDS011;3619;53.784;10.440;2022-12-15T17:00:42;17.87;;;17.17;;
7154;SDS011;3619;53.784;10.440;2022-12-15T17:02:42;18.30;;;17.60;;
7154;SDS011;3619;53.784;10.440;2022-12-15T17:05:15;17.80;;;17.10;;
7154;SDS011;3619;53.784;10.440;2022-12-15T17:07:46;16.30;;;15.70;;
7154;SDS011;3619;53.784;10.440;2022-12-15T17:10:43;16.87;;;16.27;;
7154;SDS011;3619;53.784;10.440;2022-12-15T17:13:37;15.97;;;15.37;;
7154;SDS011;3619;53.784;10.440;2022-12-15T17:16:24;13.60;;;13.10;;
7154;SDS011;3619;53.784;10.440;2022-12-15T17:19:07;12.77;;;12.27;;
7154;SDS011;3619;53.784;10.440;2022-12-15T17:21:47;12.93;;;12.43;;